Weather observations for the past three days for
Elizabethtown Addington Field Airport
Metric (Imperial)
Date Time (edt) Wind (kph) Vis. (km) Weather Sky Cond. Temperature (ºC) Relative Humidity Wind Chill (°C) Heat Index (°C) Pressure Precipitation (cm)
Air Dwpt 6 hour altimeter (cm) sea level (mb) 1 hr 3 hr 6 hr
Max. Min.
02 15:35 Calm 16.09 Fair CLR 36.6 20.4 39% 40 76.33 0.0
02 15:15 Calm 16.09 Fair CLR 36.4 20.4 39% 40 76.38 0.0
02 14:55 Calm 16.09 Partly Cloudy SCT060 36.4 20.2 39% 39 76.38 0.0
02 14:35 Calm 16.09 Mostly Cloudy BKN060 BKN070 35.5 20.1 40% 38 76.4 0.0
02 14:15 W 11 16.09 Partly Cloudy SCT060 36.1 21.2 42% 40 76.4 0.0
02 13:55 Calm 16.09 Partly Cloudy SCT060 35.6 21.2 36 22.5 43% 39 76.4 0.0
02 13:35 NW 6 16.09 Partly Cloudy SCT060 35.7 21.4 43% 40 76.43 0.0
02 13:15 Calm 16.09 Fair CLR 35.1 21.6 45% 39 76.45 0.0
02 12:55 Calm 16.09 Fair CLR 34.9 21.7 46% 39 76.45 0.0
02 12:35 Calm 16.09 Fair CLR 34.6 21.7 47% 39 76.48 0.0
02 12:15 SW 7 16.09 Fair CLR 34 21.7 49% 38 76.5 0.0
02 11:55 Calm 16.09 Fair CLR 34 22 50% 38 76.5 0.0
02 11:35 W 7 16.09 Fair CLR 33.6 21.6 49% 37 76.5 0.0
02 11:15 Calm 16.09 Fair CLR 33 22.7 55% 38 76.5 0.0
02 10:55 Calm 16.09 Fair CLR 32.1 23.1 59% 37 76.5 0.0
02 10:35 W 7 16.09 Fair CLR 31.5 22.8 60% 36 76.5 0.0
02 10:15 Calm 16.09 Fair CLR 30.5 23 64% 35 76.5 0.0
02 09:55 Calm 16.09 Fair CLR 29.6 22.9 67% 34 76.5 0.0
02 09:35 Calm 16.09 Fair CLR 28.9 22.7 69% 32 76.5 0.0
02 09:15 Calm 16.09 Fair CLR 27.4 22.4 74% 30 76.5 0.0
02 08:55 Calm 16.09 Fair CLR 26.2 22.6 81% 28 76.5 0.0
02 08:35 Calm 16.09 Fair CLR 25.2 22.8 87% 26 76.5 0.0
02 08:15 Calm 16.09 Fair CLR 23.4 22.5 95% 76.5 0.0
02 07:55 Calm 16.09 Fair CLR 22.5 22.2 24 21.7 98% 76.48 0.0
02 07:35 Calm 16.09 Fair CLR 21.8 21.6 99% 76.45 0.0
02 07:15 Calm 16.09 Fair CLR 21.7 21.5 99% 76.45 0.0
02 06:55 Calm 16.09 Fair CLR 22 21.8 99% 76.43 0.0
02 06:35 Calm 16.09 Fair CLR 22 21.6 98% 76.43 0.0
02 06:15 Calm 16.09 Fair CLR 22.1 21.7 98% 76.4 0.0
02 05:55 Calm 16.09 Fair CLR 22.7 21.9 95% 76.4 0.0
02 05:35 Calm 16.09 Fair CLR 22.9 22.2 96% 76.38 0.0
02 05:15 Calm 16.09 Fair CLR 22.5 22.2 98% 76.38 0.0
02 04:55 Calm 16.09 Fair CLR 22.6 22.2 98% 76.38 0.0
02 04:35 Calm 16.09 Fair CLR 22.6 22.1 97% 76.38 0.0
02 04:15 Calm 16.09 Fair CLR 23 22.2 95% 76.38 0.0
02 03:55 Calm 16.09 Fair CLR 23.1 22.3 95% 76.35 0.0
02 03:35 Calm 16.09 Fair CLR 23.3 22.5 95% 76.35 0.0
02 03:15 Calm 16.09 Fair CLR 23.6 22.3 92% 76.35 0.0
02 02:55 Calm 16.09 Fair CLR 23.5 22.5 94% 76.35 0.0
02 02:35 Calm 16.09 Fair CLR 23.7 22.6 94% 76.35 0.0
02 02:15 Calm 16.09 Fair CLR 23.8 22.7 94% 76.35 0.0
02 01:55 Calm 16.09 Fair CLR 23.8 22.5 32.1 23.8 92% 76.38 0.0
02 01:35 Calm 16.09 Fair CLR 24 22.5 91% 23 76.38 0.0
02 01:15 Calm 16.09 Fair CLR 24.9 22.6 87% 26 76.35 0.0
02 00:55 Calm 16.09 Fair CLR 24.8 22.7 88% 25 76.35 0.0
02 00:35 Calm 16.09 Fair CLR 24.9 22.8 88% 25 76.35 0.0
02 00:15 Calm 16.09 Fair CLR 25.3 22.6 85% 26 76.38 0.0
01 23:55 Calm 16.09 Fair CLR 25.8 22.8 84% 27 76.35 0.0
01 23:35 Calm 16.09 Fair CLR 25.9 22.9 84% 28 76.35 0.0
01 23:15 Calm 16.09 Fair CLR 25.5 22.9 86% 27 76.38 0.0
01 22:55 Calm 16.09 Fair CLR 25.7 23 85% 27 76.38 0.0
01 22:35 Calm 16.09 Fair CLR 26.4 22.7 80% 28 76.38 0.0
01 22:15 Calm 16.09 Fair CLR 26.8 22.5 77% 29 76.35 0.0
01 21:55 Calm 16.09 Fair CLR 27.7 22.2 72% 30 76.35 0.0
01 21:35 Calm 16.09 Fair CLR 28.1 22.4 71% 31 76.33 0.0
01 21:15 Calm 16.09 Fair CLR 29.4 22.3 66% 33 76.33 0.0
01 20:55 Calm 16.09 Fair CLR 29.6 22.3 65% 33 76.3 0.0
01 20:35 Calm 16.09 Fair CLR 30.7 22 60% 34 76.3 0.0
01 20:15 Calm 16.09 Fair CLR 31.5 22 57% 35 76.3 0.0
01 19:55 Calm 16.09 Fair CLR 32.2 21.9 36.3 32.2 55% 36 76.3 0.0
01 19:35 Calm 16.09 Fair CLR 33.1 21.6 51% 37 76.3 0.0
01 19:15 Calm 16.09 Fair CLR 33.7 21.3 48% 37 76.3 0.0
01 18:55 Calm 16.09 Fair CLR 34.3 20.8 45% 37 76.3 0.0
01 18:35 Calm 16.09 Fair CLR 34.8 20.7 44% 38 76.3 0.0
01 18:15 Calm 16.09 Fair CLR 35.5 20.7 42% 39 76.3 0.0
01 17:55 Calm 16.09 Fair CLR 35.6 20 40% 38 76.3 0.0
01 17:35 W 6 16.09 Fair CLR 35.4 20.1 41% 38 76.3 0.0
01 17:15 Calm 16.09 Fair CLR 35.5 20.2 41% 38 76.3 0.0
01 16:55 Calm 16.09 Fair CLR 35.7 20 40% 38 76.33 0.0
01 16:35 Calm 16.09 Fair CLR 36.2 20.1 39% 39 76.33 0.0
01 16:15 Calm 16.09 Partly Cloudy SCT060 35.7 20.3 41% 39 76.35 0.0
01 15:55 Calm 16.09 Fair CLR 35.8 20.8 42% 39 76.38 0.0
01 15:35 Calm 16.09 Fair CLR 35.8 20.6 41% 39 76.38 0.0
01 15:15 W 7 16.09 Fair CLR 35.5 21.1 43% 39 76.4 0.0
01 14:55 Calm 16.09 Partly Cloudy SCT055 35.1 21 44% 39 76.43 0.0
01 14:35 W 7 16.09 Partly Cloudy SCT055 33.7 20.6 46% 37 76.45 0.0
01 14:15 W 9 16.09 Mostly Cloudy BKN055 34.4 20.7 45% 37 76.45 0.0
01 13:55 W 7 16.09 Mostly Cloudy BKN055 34.5 21.3 34.5 21.4 46% 38 76.45 0.0
01 13:35 W 11 16.09 Mostly Cloudy BKN050 BKN060 33.5 21.2 48% 37 76.45 0.0
01 13:15 Calm 16.09 Mostly Cloudy BKN050 BKN055 33.6 21.3 49% 37 76.48 0.0
01 12:55 NW 11 16.09 Partly Cloudy SCT048 SCT050 34 21.7 49% 38 76.48 0.0
01 12:35 W 13 16.09 Fair CLR 34.2 22.6 51% 39 76.5 0.0
01 12:15 Calm 16.09 Fair CLR 33.6 22.4 52% 38 76.5 0.0
01 11:55 Calm 16.09 Fair CLR 32.9 22 53% 37 76.5 0.0
01 11:35 W 11 16.09 Fair CLR 32.8 22.5 55% 37 76.53 0.0
01 11:15 W 13 16.09 Fair CLR 31.5 22.8 60% 36 76.53 0.0
01 10:55 Calm 16.09 Fair CLR 30.7 22.9 63% 35 76.53 0.0
01 10:35 Calm 16.09 Fair CLR 30 22.4 64% 34 76.56 0.0
01 10:15 Calm 16.09 Fair CLR 29.6 22.3 65% 33 76.56 0.0
01 09:55 Calm 16.09 Fair CLR 28.4 22.1 69% 31 76.56 0.0
01 09:35 Calm 16.09 Fair CLR 27.4 22.1 73% 30 76.56 0.0
01 09:15 Calm 16.09 Fair CLR 26.5 21.9 76% 28 76.56 0.0
01 08:55 Calm 16.09 Fair CLR 25.5 21.9 81% 27 76.56 0.0
01 08:35 Calm 16.09 Fair CLR 24.5 22 86% 25 76.53 0.0
01 08:15 Calm 16.09 Fair CLR 22.7 21.5 93% 76.53 0.0
01 07:55 Calm 16.09 Fair CLR 21.3 20.9 23.5 20.6 98% 76.5 0.0
01 07:35 Calm 16.09 Fair CLR 20.9 20.7 99% 76.5 0.0
01 07:15 Calm 16.09 Fair CLR 20.7 20.5 99% 76.48 0.0
01 06:35 Calm 16.09 Fair CLR 21.1 20.7 98% 76.45 0.0
01 06:15 Calm 16.09 Fair CLR 21 20.6 98% 76.43 0.0
01 05:55 Calm 16.09 Fair CLR 21 20.4 96% 76.43 0.0
01 05:35 Calm 16.09 Fair CLR 21.9 21.1 95% 76.4 0.0
01 05:15 Calm 16.09 Fair CLR 22.4 21.3 94% 76.4 0.0
01 04:55 Calm 16.09 Fair CLR 21.8 21.2 96% 76.38 0.0
01 04:35 Calm 16.09 Fair CLR 21.9 21.1 95% 76.38 0.0
01 04:15 Calm 16.09 Fair CLR 21.7 20.9 95% 76.38 0.0
01 03:55 Calm 16.09 Fair CLR 21.8 21.2 96% 76.38 0.0
01 03:35 Calm 16.09 Fair CLR 21.5 20.8 96% 76.38 0.0
01 03:15 Calm 16.09 Fair CLR 21.8 21 95% 76.4 0.0
01 02:55 Calm 16.09 Fair CLR 22.8 20.9 89% 76.4 0.0
01 02:35 Calm 16.09 Fair CLR 22.9 21.1 90% 76.4 0.0
01 02:15 Calm 16.09 Fair CLR 22.4 21.1 92% 76.4 0.0
01 01:55 Calm 16.09 Fair CLR 22.8 21.4 31.2 22.5 92% 76.43 0.0
01 01:35 Calm 16.09 Fair CLR 22.5 21.2 92% 76.43 0.0
01 01:15 Calm 16.09 Fair CLR 23.7 21 85% 76.43 0.0
01 00:55 Calm 16.09 Fair CLR 24 21.4 85% 24 76.43 0.0
01 00:35 Calm 16.09 Fair CLR 24 21.4 85% 24 76.43 0.0
01 00:15 Calm 16.09 Fair CLR 23.6 21.5 88% 76.4 0.0
31 23:55 Calm 16.09 Fair CLR 23.6 21.5 88% 76.4 0.0
31 23:35 Calm 16.09 Fair CLR 23.7 21.5 88% 76.4 0.0
31 23:15 Calm 16.09 Fair CLR 24.5 21.3 82% 25 76.4 0.0
31 22:55 Calm 16.09 Fair CLR 25.9 21.1 75% 27 76.4 0.0
31 22:35 Calm 16.09 Fair CLR 25.8 20.8 74% 27 76.4 0.0
31 22:15 Calm 16.09 Fair CLR 25.7 21.3 77% 27 76.4 0.0
31 21:55 Calm 16.09 Fair CLR 26.1 21 74% 28 76.38 0.0
31 21:35 Calm 16.09 Fair CLR 26.5 21.1 72% 28 76.38 0.0
31 21:15 Calm 16.09 Fair CLR 27.5 20.5 66% 29 76.33 0.0
31 20:55 Calm 16.09 Fair CLR 28.6 20 60% 30 76.33 0.0
31 20:35 Calm 16.09 Fair CLR 30.5 19.7 52% 32 76.33 0.0
31 20:15 Calm 16.09 Fair CLR 30.3 19.7 53% 32 76.3 0.0
31 19:55 Calm 16.09 Fair CLR 31.3 19.7 35.5 31.3 50% 33 76.3 0.0
31 19:35 Calm 16.09 Fair CLR 32.1 19.8 48% 34 76.3 0.0
31 19:15 Calm 16.09 Fair CLR 33.1 19.7 45% 35 76.33 0.0
31 18:55 Calm 16.09 Fair CLR 33.5 20 45% 36 76.33 0.0
31 18:35 Calm 16.09 Partly Cloudy SCT060 34 19.4 42% 36 76.33 0.0
31 18:15 Calm 16.09 Partly Cloudy SCT060 34.7 20 42% 37 76.38 0.0
31 17:55 Calm 16.09 Fair CLR 34.8 19.5 41% 37 76.38 0.0
31 17:35 Calm 16.09 Partly Cloudy SCT070 34.8 19.4 40% 37 76.38 0.0
31 17:15 Calm 16.09 Partly Cloudy SCT070 35.4 19.5 39% 38 76.4 0.0
31 16:55 Calm 16.09 Fair CLR 35.2 19.6 40% 38 76.4 0.0
31 16:35 Calm 16.09 Fair CLR 35 19.9 41% 38 76.4 0.0
31 16:15 Calm 16.09 Fair CLR 35.4 19.7 40% 38 76.43 0.0
31 15:55 SW 11 16.09 Fair CLR 35.1 20 41% 38 76.43 0.0
31 15:35 Calm 16.09 Fair CLR 34.2 19.7 42% 36 76.45 0.0
31 15:15 Calm 16.09 Partly Cloudy SCT055 34.6 20.1 43% 37 76.45 0.0
31 14:55 Calm 16.09 Partly Cloudy SCT055 34.3 20.1 43% 37 76.48 0.0
31 14:35 Calm 16.09 Fair CLR 34.2 20.1 44% 37 76.48 0.0
31 14:15 W 17 16.09 Partly Cloudy SCT050 34.2 21.1 46% 38 76.5 0.0
31 13:55 W 11 16.09 Fair CLR 34 20.6 34.1 21.5 45% 37 76.5 0.0
31 13:35 W 7 16.09 Fair CLR 33.6 20.6 46% 36 76.53 0.0
31 13:15 Calm 16.09 Partly Cloudy SCT045 33.3 21 48% 36 76.53 0.0
31 12:55 W 6 16.09 Fair CLR 32.8 21.5 51% 36 76.56 0.0
31 12:35 W 11 16.09 Fair CLR 32.7 21.6 52% 36 76.58 0.0
31 12:15 W 11 16.09 Fair CLR 32.2 21.3 53% 35 76.58 0.0
31 11:55 SW 9 16.09 Fair CLR 31.9 21.9 55% 36 76.58 0.0
31 11:35 Calm 16.09 Fair CLR 31.6 22.1 57% 35 76.58 0.0
31 11:15 W 9 16.09 Fair CLR 31.1 22.1 59% 35 76.58 0.0
31 10:55 Calm 16.09 Fair CLR 30.5 22.6 63% 34 76.58 0.0
31 10:35 Calm 16.09 Fair CLR 29.4 22.8 68% 33 76.58 0.0
31 10:15 W 6 16.09 Fair CLR 28.5 22.3 69% 32 76.56 0.0
31 09:55 Calm 16.09 Fair CLR 28 22.1 70% 31 76.56 0.0
31 09:35 Calm 16.09 Fair CLR 27.1 22.1 74% 29 76.56 0.0
31 09:15 Calm 16.09 Fair CLR 26.2 22 78% 28 76.56 0.0
31 08:55 Calm 16.09 Fair CLR 25.3 22 82% 26 76.56 0.0
31 08:35 Calm 16.09 Fair CLR 24 21.7 87% 24 76.53 0.0
31 08:15 Calm 16.09 Fair CLR 22.7 21.6 94% 76.53 0.0
31 07:55 Calm 16.09 Fair CLR 21.4 21 22.5 20.8 98% 76.5 0.0
31 07:35 Calm 16.09 Fair CLR 21.3 21 98% 76.5 0.0
31 07:15 Calm 16.09 Fair CLR 20.8 20.5 98% 76.48 0.0
31 06:55 Calm 16.09 Fair CLR 20.8 20.1 96% 76.45 0.0
31 06:35 Calm 16.09 Fair CLR 21.6 20.9 96% 76.45 0.0
31 06:15 Calm 16.09 Fair CLR 21.5 20.7 95% 76.43 0.0
31 05:55 Calm 16.09 Fair CLR 21.6 21.2 98% 76.43 0.0
31 05:35 Calm 16.09 Fair CLR 21.6 21.1 97% 76.43 0.0
31 05:15 Calm 16.09 Fair CLR 21.3 20.8 97% 76.43 0.0
31 04:55 Calm 16.09 Fair CLR 21.4 20.8 96% 76.43 0.0
31 04:35 Calm 16.09 Fair CLR 21.6 20.8 95% 76.4 0.0
31 04:15 Calm 16.09 Fair CLR 22 21.2 95% 76.4 0.0
31 03:55 Calm 16.09 Fair CLR 22 21.4 96% 76.38 0.0
31 03:35 Calm 16.09 Fair CLR 22 21.2 95% 76.4 0.0
31 03:15 Calm 16.09 Fair CLR 22.3 21.5 95% 76.4 0.0
31 02:55 Calm 16.09 Fair CLR 21.9 21.1 95% 76.4 0.0
31 02:35 Calm 16.09 Fair CLR 21.9 21 95% 76.43 0.0
31 02:15 Calm 16.09 Fair CLR 22.2 21.3 95% 76.43 0.0
31 01:55 Calm 16.09 Fair CLR 22.5 21.3 30 22.2 93% 76.43 0.0
31 01:35 Calm 16.09 Fair CLR 22.2 21.2 94% 76.43 0.0
31 01:15 Calm 16.09 Fair CLR 23 21.4 91% 76.43 0.0
31 00:55 Calm 16.09 Fair CLR 23.9 21.6 87% 24 76.43 0.0
31 00:35 Calm 16.09 Fair CLR 24 21.7 87% 24 76.4 0.0
31 00:15 Calm 16.09 Fair CLR 23.8 21.7 88% 76.43 0.0
30 23:55 Calm 16.09 Fair CLR 23.7 21.6 88% 76.43 0.0
30 23:35 Calm 16.09 Fair CLR 24.1 21.8 87% 24 76.43 0.0
30 23:15 Calm 16.09 Fair CLR 25 22 83% 26 76.4 0.0
30 22:55 Calm 16.09 Fair CLR 25 22 83% 26 76.4 0.0
30 22:35 Calm 16.09 Fair CLR 25.8 21.7 78% 27 76.4 0.0
30 22:15 Calm 16.09 Fair CLR 25.5 21.8 80% 27 76.4 0.0
30 21:55 Calm 16.09 Fair CLR 25.1 22.1 84% 26 76.4 0.0
30 21:35 Calm 16.09 Fair CLR 25.5 21.5 79% 27 76.38 0.0
30 21:15 Calm 16.09 Fair CLR 26.5 21.3 73% 28 76.38 0.0
30 20:55 Calm 16.09 Fair CLR 27.8 20.7 65% 30 76.33 0.0
30 20:35 Calm 16.09 Fair CLR 27.4 21.5 70% 30 76.33 0.0
30 20:15 Calm 16.09 Fair CLR 28.8 22.2 68% 32 76.33 0.0
30 19:55 Calm 16.09 Fair CLR 30.3 21 34.7 30.3 58% 33 76.33 0.0
30 19:35 Calm 16.09 Fair CLR 31.1 20.7 54% 34 76.33 0.0
30 19:15 Calm 16.09 Fair CLR 31.8 20.6 51% 34 76.33 0.0
30 18:55 Calm 16.09 Fair CLR 31.9 19.5 48% 34 76.33 0.0
30 18:35 Calm 16.09 Fair CLR 32.6 19.2 45% 34 76.33 0.0
30 18:15 Calm 16.09 Partly Cloudy SCT080 33.1 18.9 43% 35 76.33 0.0
30 17:55 Calm 16.09 Fair CLR 34.1 18.5 40% 35 76.33 0.0
30 17:35 SW 9 16.09 Fair CLR 34 18.6 40% 35 76.33 0.0
30 17:15 Calm 16.09 Fair CLR 34.5 19 40% 36 76.33 0.0
30 16:55 Calm 16.09 Fair CLR 34.3 18.8 40% 36 76.38 0.0
30 16:35 Calm 16.09 Fair CLR 34.4 18.7 39% 36 76.38 0.0
30 16:15 Calm 16.09 Partly Cloudy SCT065 34.7 19 40% 37 76.4 0.0
30 15:55 Calm 16.09 Fair CLR 34 18.5 40% 35 76.4 0.0
Date Time (edt) Wind (kph) Vis. (km) Weather Sky Cond. Air Dwpt Max. Min. Relative Humidity Wind Chill (°C) Heat Index (°C) altimeter (cm) sea level (mb) 1 hr 3 hr 6 hr
6 hour
Temperature (ºC) Pressure Precipitation (cm)